LYTV/TIV METAR and TAF weather

Enter ICAO airport designator
Station Type Date Time Source
LYTV METAR 2019/12/10 06:00 UTC NOAA

LYTV 100600Z VRB05KT 9999 -RA FEW030TCU SCT040 BKN080 10/09 Q1007 RETS TEMPO 5000 TSRA FEW027CB SCT033 BKN040


Station Type Date Time Source
LYTV Decoded METAR 2019/12/10 06:00 UTC NOAA

Tivat, Serbia and Montenegro (LYTV) 42-24N 018-44E 5M
Dec 10, 2019 - 01:00 AM EST / 2019.12.10 0600 UTC
Wind: Variable at 6 MPH (5 KT):0
Visibility: greater than 7 mile(s):0
Sky conditions: mostly cloudy
Weather: light rain; Cumulonimbus clouds, towering cumulus clouds observed
Temperature: 50 F (10 C)
Dew Point: 48 F (9 C)
Relative Humidity: 93%
Pressure (altimeter): 29.74 in. Hg (1007 hPa)
ob: LYTV 100600Z VRB05KT 9999 -RA FEW030TCU SCT040 BKN080 10/09 Q1007 RETS TEMPO 5000 TSRA FEW027CB SCT033 BKN040
cycle: 6

Station Type Date Time Source
LYTV TAF 2019/12/10 06:24 UTC NOAA

TAF LYTV 100500Z 1006/1106 09006KT 9999 FEW030 SCT040 BKN080 TX13/1013Z TN05/1104Z
TEMPO 1006/1014 4000 RA PROB40
TEMPO 1006/1009 VRB15G25KT 2000 TSRA FEW010 SCT027CB BKN033
BECMG 1012/1014 02015G25KT
TEMPO 1020/1106 02018G35KT

Example: see airport list